createdAt,value
2018-07-23T00:00:37.593Z,18.90
2018-07-23T00:03:05.252Z,18.80
2018-07-23T00:05:32.797Z,18.80
2018-07-23T00:08:00.332Z,18.80
2018-07-23T00:10:27.860Z,18.70
2018-07-23T00:12:55.408Z,18.70
2018-07-23T00:15:22.940Z,18.60
2018-07-23T00:17:50.491Z,18.60
2018-07-23T00:20:18.033Z,18.50
2018-07-23T00:22:45.574Z,18.50
2018-07-23T00:25:13.109Z,18.40
2018-07-23T00:27:40.632Z,18.50
2018-07-23T00:30:08.192Z,18.50
2018-07-23T00:32:35.948Z,18.50
2018-07-23T00:35:03.513Z,18.50
2018-07-23T00:37:31.048Z,18.50
2018-07-23T00:39:58.588Z,18.50
2018-07-23T00:42:30.305Z,18.50
2018-07-23T00:44:57.844Z,18.50
2018-07-23T00:47:25.360Z,18.50
2018-07-23T00:49:52.912Z,18.50
2018-07-23T00:52:20.440Z,18.50
2018-07-23T00:54:47.995Z,18.40
2018-07-23T00:57:15.527Z,18.40
2018-07-23T00:59:43.055Z,18.40
2018-07-23T01:02:10.573Z,18.30
2018-07-23T01:04:38.215Z,18.30
2018-07-23T01:07:05.975Z,18.30
2018-07-23T01:09:33.521Z,18.30
2018-07-23T01:12:01.039Z,18.30
2018-07-23T01:14:28.571Z,18.30
2018-07-23T01:16:56.081Z,18.30
2018-07-23T01:19:23.596Z,18.30
2018-07-23T01:21:51.107Z,18.30
2018-07-23T01:24:18.608Z,18.40
2018-07-23T01:26:46.128Z,18.40
2018-07-23T01:29:13.654Z,18.50
2018-07-23T01:31:41.171Z,18.50
2018-07-23T01:34:08.680Z,18.50
2018-07-23T01:36:36.195Z,18.60
2018-07-23T01:39:06.744Z,18.60
2018-07-23T01:41:34.275Z,18.70
2018-07-23T01:44:01.807Z,18.70
2018-07-23T01:46:29.320Z,18.80
2018-07-23T01:48:56.821Z,18.90
2018-07-23T01:51:24.331Z,18.90
2018-07-23T01:53:51.835Z,19.00
2018-07-23T01:56:19.357Z,19.00
2018-07-23T01:58:46.864Z,19.00
2018-07-23T02:01:14.392Z,19.10
2018-07-23T02:03:41.948Z,19.10
2018-07-23T02:06:09.679Z,19.20
2018-07-23T02:08:37.191Z,19.20
2018-07-23T02:11:05.515Z,19.20
2018-07-23T02:13:33.087Z,19.20
2018-07-23T02:16:00.628Z,19.20
2018-07-23T02:18:28.260Z,19.20
2018-07-23T02:20:55.796Z,19.20
2018-07-23T02:23:23.390Z,19.10
2018-07-23T02:25:50.937Z,19.10
2018-07-23T02:28:18.463Z,19.10
2018-07-23T02:30:46.013Z,19.10
2018-07-23T02:33:13.547Z,19.10
2018-07-23T02:35:41.071Z,19.10
2018-07-23T02:38:08.773Z,19.00
2018-07-23T02:40:36.327Z,19.00
2018-07-23T02:43:03.872Z,19.00
2018-07-23T02:45:31.395Z,19.00
2018-07-23T02:47:58.928Z,19.00
2018-07-23T02:50:26.460Z,19.00
2018-07-23T02:52:53.992Z,19.00
2018-07-23T02:55:21.519Z,19.00
2018-07-23T02:57:49.672Z,19.00
2018-07-23T03:00:17.228Z,18.90
2018-07-23T03:02:44.796Z,19.00
2018-07-23T03:05:12.380Z,18.90
2018-07-23T03:07:39.924Z,18.90
2018-07-23T03:10:07.481Z,18.90
2018-07-23T03:12:35.096Z,18.90
2018-07-23T03:15:02.638Z,18.80
2018-07-23T03:17:30.188Z,18.80
2018-07-23T03:19:57.912Z,18.80
2018-07-23T03:22:25.452Z,18.80
2018-07-23T03:24:52.975Z,18.80
2018-07-23T03:27:20.503Z,18.70
2018-07-23T03:29:48.040Z,18.70
2018-07-23T03:32:15.576Z,18.60
2018-07-23T03:34:43.105Z,18.60
2018-07-23T03:37:10.636Z,18.50
2018-07-23T03:39:38.167Z,18.50
2018-07-23T03:42:05.736Z,18.50
2018-07-23T03:44:33.275Z,18.50
2018-07-23T03:47:00.807Z,18.50
2018-07-23T03:49:28.340Z,18.50
2018-07-23T03:51:55.877Z,18.50
2018-07-23T03:54:23.403Z,18.50
2018-07-23T03:56:50.931Z,18.50
2018-07-23T03:59:18.483Z,18.50
2018-07-23T04:01:46.013Z,18.50
2018-07-23T04:04:16.547Z,18.60
2018-07-23T04:06:45.133Z,18.60
2018-07-23T04:09:12.732Z,18.70
2018-07-23T04:11:40.339Z,18.80
2018-07-23T04:14:07.867Z,18.80
2018-07-23T04:16:35.418Z,18.90
2018-07-23T04:19:03.028Z,19.00
2018-07-23T04:21:30.572Z,19.10
2018-07-23T04:23:58.087Z,19.10
2018-07-23T04:26:25.628Z,19.20
2018-07-23T04:28:53.244Z,19.30
2018-07-23T04:31:20.757Z,19.40
2018-07-23T04:33:48.499Z,19.50
2018-07-23T04:36:16.012Z,19.60
2018-07-23T04:38:43.511Z,19.70
2018-07-23T04:41:11.032Z,19.80
2018-07-23T04:43:38.543Z,19.90
2018-07-23T04:46:06.117Z,20.10
2018-07-23T04:48:33.968Z,20.20
2018-07-23T04:51:01.481Z,20.30
2018-07-23T04:53:29.324Z,20.50
2018-07-23T04:55:56.843Z,20.70
2018-07-23T04:58:24.352Z,20.90
2018-07-23T05:00:51.879Z,21.20
2018-07-23T05:03:19.393Z,21.50
2018-07-23T05:05:46.912Z,21.90
2018-07-23T05:08:14.434Z,22.60
2018-07-23T05:10:41.949Z,23.20
2018-07-23T05:13:09.473Z,23.80
2018-07-23T05:15:36.992Z,24.50
2018-07-23T05:18:04.531Z,25.20
2018-07-23T05:20:32.049Z,25.80
2018-07-23T05:22:59.560Z,26.50
2018-07-23T05:25:27.112Z,27.00
2018-07-23T05:27:54.633Z,27.60
2018-07-23T05:30:22.410Z,28.00
2018-07-23T05:32:49.915Z,27.90
2018-07-23T05:35:17.428Z,27.60
2018-07-23T05:37:44.980Z,27.10
2018-07-23T05:40:12.497Z,26.50
2018-07-23T05:42:39.999Z,26.20
2018-07-23T05:45:07.593Z,26.70
2018-07-23T05:47:35.120Z,27.70
2018-07-23T05:50:02.652Z,28.60
2018-07-23T05:52:30.165Z,29.10
2018-07-23T05:54:57.693Z,29.20
2018-07-23T05:57:25.198Z,29.70
2018-07-23T05:59:52.746Z,30.30
2018-07-23T06:02:20.257Z,30.90
2018-07-23T06:04:48.016Z,31.40
2018-07-23T06:07:15.533Z,31.70
2018-07-23T06:09:43.068Z,32.30
2018-07-23T06:12:11.061Z,32.70
2018-07-23T06:14:38.589Z,32.80
2018-07-23T06:17:06.408Z,32.80
2018-07-23T06:19:34.048Z,33.00
2018-07-23T06:22:01.561Z,32.70
2018-07-23T06:24:40.283Z,32.00
2018-07-23T06:27:08.244Z,32.20
2018-07-23T06:29:35.789Z,32.80
2018-07-23T06:32:03.351Z,33.30
2018-07-23T06:34:30.881Z,33.70
2018-07-23T06:36:58.428Z,34.30
2018-07-23T06:39:25.949Z,34.70
2018-07-23T06:41:53.499Z,34.70
2018-07-23T06:44:21.027Z,34.50
2018-07-23T06:46:48.572Z,34.20
2018-07-23T06:49:16.103Z,33.50
2018-07-23T06:51:43.645Z,33.60
2018-07-23T06:54:11.244Z,34.00
2018-07-23T06:56:39.066Z,34.60
2018-07-23T06:59:06.583Z,35.10
2018-07-23T07:01:34.125Z,35.40
2018-07-23T07:04:01.685Z,35.40
2018-07-23T07:06:29.301Z,35.60
2018-07-23T07:08:56.763Z,35.80
2018-07-23T07:11:24.311Z,36.00
2018-07-23T07:13:51.864Z,36.10
2018-07-23T07:16:19.411Z,36.20
2018-07-23T07:18:46.998Z,36.00
2018-07-23T07:21:14.516Z,35.80
2018-07-23T07:23:42.089Z,35.70
2018-07-23T07:26:09.639Z,35.70
2018-07-23T07:28:37.187Z,35.70
2018-07-23T07:31:04.728Z,35.80
2018-07-23T07:33:32.340Z,35.90
2018-07-23T07:35:59.875Z,36.10
2018-07-23T07:38:27.417Z,36.20
2018-07-23T07:40:54.961Z,36.00
2018-07-23T07:43:22.520Z,35.80
2018-07-23T07:45:50.057Z,35.80
2018-07-23T07:48:17.624Z,35.80
2018-07-23T07:50:45.164Z,35.90
2018-07-23T07:53:12.712Z,35.90
2018-07-23T07:55:40.252Z,35.70
2018-07-23T07:58:07.806Z,35.40
2018-07-23T08:00:35.340Z,35.20
2018-07-23T08:03:02.895Z,35.20
2018-07-23T08:05:30.433Z,35.10
2018-07-23T08:07:57.976Z,34.90
2018-07-23T08:10:25.512Z,34.80
2018-07-23T08:12:53.224Z,34.70
2018-07-23T08:15:20.744Z,34.80
2018-07-23T08:17:48.325Z,34.70
2018-07-23T08:20:15.823Z,34.60
2018-07-23T08:22:43.357Z,34.60
2018-07-23T08:25:10.910Z,34.20
2018-07-23T08:27:38.400Z,34.00
2018-07-23T08:30:06.569Z,34.00
2018-07-23T08:32:34.091Z,34.10
2018-07-23T08:35:01.609Z,34.10
2018-07-23T08:37:29.139Z,34.10
2018-07-23T08:39:56.668Z,33.90
2018-07-23T08:42:24.195Z,34.10
2018-07-23T08:44:51.729Z,34.20
2018-07-23T08:47:19.236Z,34.20
2018-07-23T08:49:46.748Z,34.20
2018-07-23T08:52:14.290Z,34.10
2018-07-23T08:54:41.956Z,34.20
2018-07-23T08:57:10.615Z,34.20
2018-07-23T08:59:38.149Z,34.30
2018-07-23T09:02:05.804Z,34.40
2018-07-23T09:04:33.323Z,34.60
2018-07-23T09:07:00.848Z,34.90
2018-07-23T09:09:28.400Z,35.20
2018-07-23T09:11:55.934Z,35.30
2018-07-23T09:14:23.476Z,35.30
2018-07-23T09:16:51.012Z,35.10
2018-07-23T09:19:18.553Z,34.90
2018-07-23T09:21:46.086Z,35.00
2018-07-23T09:24:13.630Z,35.20
2018-07-23T09:26:41.194Z,35.10
2018-07-23T09:29:08.771Z,35.10
2018-07-23T09:31:36.318Z,35.10
2018-07-23T09:34:03.856Z,35.10
2018-07-23T09:36:31.400Z,35.50
2018-07-23T09:38:58.934Z,35.90
2018-07-23T09:41:26.473Z,36.20
2018-07-23T09:43:54.000Z,36.30
2018-07-23T09:46:21.534Z,36.40
2018-07-23T09:48:49.074Z,36.30
2018-07-23T09:51:16.615Z,36.30
2018-07-23T09:53:44.155Z,36.40
2018-07-23T09:56:11.692Z,36.50
2018-07-23T09:58:39.231Z,36.60
2018-07-23T10:01:11.303Z,36.90
2018-07-23T10:03:39.196Z,36.90
2018-07-23T10:06:06.743Z,37.10
2018-07-23T10:08:34.272Z,37.30
2018-07-23T10:11:01.881Z,37.40
2018-07-23T10:13:29.391Z,37.00
2018-07-23T10:15:57.080Z,36.90
2018-07-23T10:18:24.621Z,37.10
2018-07-23T10:20:52.155Z,37.50
2018-07-23T10:23:19.684Z,37.80
2018-07-23T10:25:47.240Z,37.90
2018-07-23T10:28:14.784Z,37.00
2018-07-23T10:30:42.344Z,36.10
2018-07-23T10:33:09.876Z,35.70
2018-07-23T10:35:37.407Z,36.00
2018-07-23T10:38:04.944Z,36.30
2018-07-23T10:40:32.479Z,36.70
2018-07-23T10:43:00.013Z,37.20
2018-07-23T10:45:27.565Z,37.40
2018-07-23T10:47:55.079Z,36.70
2018-07-23T10:50:22.644Z,35.70
2018-07-23T10:52:50.184Z,35.00
2018-07-23T10:55:17.721Z,34.90
2018-07-23T11:00:12.848Z,35.90
2018-07-23T11:02:40.392Z,35.60
2018-07-23T11:05:08.581Z,35.00
2018-07-23T11:07:36.125Z,34.20
2018-07-23T11:10:04.535Z,33.70
2018-07-23T11:12:32.069Z,33.90
2018-07-23T11:14:59.632Z,34.20
2018-07-23T11:17:27.148Z,35.00
2018-07-23T11:19:54.677Z,35.90
2018-07-23T11:22:22.221Z,36.70
2018-07-23T11:24:49.755Z,37.10
2018-07-23T11:27:17.352Z,37.60
2018-07-23T11:29:44.894Z,38.00
2018-07-23T11:32:12.475Z,37.60
2018-07-23T11:34:53.328Z,36.50
2018-07-23T11:39:48.436Z,35.40
2018-07-23T11:42:15.956Z,34.70
2018-07-23T11:44:43.475Z,33.90
2018-07-23T11:47:11.030Z,33.10
2018-07-23T11:49:38.552Z,32.60
2018-07-23T11:52:06.055Z,33.10
2018-07-23T11:54:33.606Z,34.10
2018-07-23T11:57:01.188Z,35.30
2018-07-23T11:59:28.707Z,36.30
2018-07-23T12:01:56.777Z,36.90
2018-07-23T12:04:24.313Z,36.40
2018-07-23T12:06:51.811Z,35.70
2018-07-23T12:12:22.291Z,35.60
2018-07-23T12:14:49.835Z,35.00
2018-07-23T12:17:17.416Z,34.40
2018-07-23T12:25:46.754Z,35.40
2018-07-23T12:28:14.303Z,36.40
2018-07-23T12:31:05.073Z,37.20
2018-07-23T12:33:32.620Z,37.90
2018-07-23T12:36:00.211Z,37.20
2018-07-23T12:38:27.728Z,36.20
2018-07-23T12:41:08.016Z,35.40
2018-07-23T12:43:35.549Z,35.60
2018-07-23T12:46:03.089Z,36.40
2018-07-23T12:48:30.616Z,36.60
2018-07-23T12:50:58.172Z,35.70
2018-07-23T12:53:25.724Z,34.90
2018-07-23T12:55:53.247Z,34.60
2018-07-23T12:58:20.761Z,35.00
2018-07-23T13:00:48.304Z,35.60
2018-07-23T13:03:15.844Z,35.90
2018-07-23T13:05:43.388Z,36.00
2018-07-23T13:08:10.971Z,35.70
2018-07-23T13:10:38.471Z,35.70
2018-07-23T13:13:06.128Z,36.10
2018-07-23T13:15:33.672Z,36.60
2018-07-23T13:18:01.204Z,37.10
2018-07-23T13:20:28.777Z,37.20
2018-07-23T13:22:56.328Z,37.70
2018-07-23T13:25:23.913Z,37.90
2018-07-23T13:27:51.440Z,37.30
2018-07-23T13:30:19.015Z,36.70
2018-07-23T13:32:46.551Z,35.70
2018-07-23T13:35:14.252Z,35.40
2018-07-23T13:37:42.411Z,35.90
2018-07-23T13:40:13.907Z,36.40
2018-07-23T13:42:41.436Z,36.80
2018-07-23T13:45:09.000Z,37.40
2018-07-23T13:50:04.211Z,38.00
2018-07-23T13:52:31.755Z,37.80
2018-07-23T13:54:59.288Z,36.90
2018-07-23T13:57:26.820Z,36.30
2018-07-23T13:59:54.355Z,36.50
2018-07-23T14:02:21.912Z,37.10
2018-07-23T14:04:49.455Z,37.50
2018-07-23T14:07:17.242Z,37.70
2018-07-23T14:09:44.995Z,38.00
2018-07-23T14:12:12.673Z,38.40
2018-07-23T14:14:40.206Z,38.70
2018-07-23T14:17:22.111Z,39.20
2018-07-23T14:19:49.660Z,39.30
2018-07-23T14:22:17.389Z,38.80
2018-07-23T14:24:44.919Z,38.40
2018-07-23T14:27:12.468Z,38.00
2018-07-23T14:29:40.016Z,37.90
2018-07-23T14:32:07.539Z,37.90
2018-07-23T14:34:35.071Z,38.00
2018-07-23T14:37:02.627Z,37.40
2018-07-23T14:39:30.159Z,37.30
2018-07-23T14:41:57.704Z,37.40
2018-07-23T14:44:25.228Z,37.50
2018-07-23T14:46:52.788Z,37.40
2018-07-23T14:49:20.339Z,37.60
2018-07-23T14:51:47.876Z,37.90
2018-07-23T14:54:15.428Z,38.00
2018-07-23T14:56:42.977Z,38.20
2018-07-23T14:59:10.552Z,38.40
2018-07-23T15:01:38.098Z,38.40
2018-07-23T15:04:05.648Z,38.00
2018-07-23T15:06:33.184Z,37.70
2018-07-23T15:09:00.724Z,37.60
2018-07-23T15:11:28.254Z,37.30
2018-07-23T15:13:55.791Z,37.30
2018-07-23T15:16:23.301Z,37.40
2018-07-23T15:18:50.821Z,37.40
2018-07-23T15:21:18.336Z,37.30
2018-07-23T15:23:45.839Z,36.90
2018-07-23T15:26:13.344Z,36.70
2018-07-23T15:28:40.883Z,36.70
2018-07-23T15:31:08.544Z,36.70
2018-07-23T15:33:36.183Z,36.50
2018-07-23T15:36:03.697Z,36.50
2018-07-23T15:38:31.274Z,36.40
2018-07-23T15:40:58.855Z,36.20
2018-07-23T15:43:26.369Z,35.70
2018-07-23T15:45:54.011Z,35.80
2018-07-23T15:48:21.440Z,36.10
2018-07-23T15:50:48.967Z,35.90
2018-07-23T15:53:16.476Z,35.40
2018-07-23T15:55:44.008Z,35.30
2018-07-23T15:58:11.524Z,35.30
2018-07-23T16:00:39.056Z,35.30
2018-07-23T16:03:06.585Z,35.50
2018-07-23T16:05:34.108Z,35.60
2018-07-23T16:08:01.616Z,35.60
2018-07-23T16:10:29.137Z,35.40
2018-07-23T16:12:56.662Z,34.90
2018-07-23T16:15:24.187Z,34.70
2018-07-23T16:17:51.707Z,34.60
2018-07-23T16:20:19.248Z,34.30
2018-07-23T16:22:46.758Z,34.10
2018-07-23T16:25:14.292Z,34.10
2018-07-23T16:27:41.804Z,34.20
2018-07-23T16:30:09.559Z,34.40
2018-07-23T16:32:37.421Z,34.30
2018-07-23T16:35:06.852Z,34.10
2018-07-23T16:37:34.360Z,34.00
2018-07-23T16:40:01.897Z,33.90
2018-07-23T16:42:29.428Z,33.80
2018-07-23T16:44:56.976Z,33.60
2018-07-23T16:49:52.128Z,33.10
2018-07-23T16:52:19.646Z,32.80
2018-07-23T16:54:47.178Z,32.70
2018-07-23T16:57:14.704Z,32.40
2018-07-23T16:59:42.224Z,32.30
2018-07-23T17:02:09.768Z,32.10
2018-07-23T17:04:37.347Z,31.80
2018-07-23T17:07:04.911Z,31.60
2018-07-23T17:09:32.415Z,31.50
2018-07-23T17:11:59.923Z,31.30
2018-07-23T17:14:27.444Z,31.10
2018-07-23T17:16:55.140Z,31.00
2018-07-23T17:19:22.711Z,30.90
2018-07-23T17:21:50.301Z,30.80
2018-07-23T17:24:17.831Z,30.70
2018-07-23T17:26:45.396Z,30.50
2018-07-23T17:29:12.930Z,30.30
2018-07-23T17:31:40.483Z,30.20
2018-07-23T17:34:08.020Z,30.00
2018-07-23T17:36:35.552Z,29.90
2018-07-23T17:39:06.692Z,29.80
2018-07-23T17:41:34.240Z,29.70
2018-07-23T17:44:01.792Z,29.70
2018-07-23T17:46:29.341Z,29.70
2018-07-23T17:48:56.876Z,29.70
2018-07-23T17:51:24.424Z,29.70
2018-07-23T17:53:51.951Z,29.70
2018-07-23T17:56:19.484Z,29.60
2018-07-23T17:58:47.020Z,29.60
2018-07-23T18:01:14.568Z,29.50
2018-07-23T18:03:42.108Z,29.30
2018-07-23T18:06:09.654Z,29.20
2018-07-23T18:08:37.191Z,29.10
2018-07-23T18:11:04.725Z,28.90
2018-07-23T18:13:32.272Z,28.80
2018-07-23T18:15:59.793Z,28.60
2018-07-23T18:18:27.339Z,28.50
2018-07-23T18:20:57.968Z,28.40
2018-07-23T18:23:25.545Z,28.20
2018-07-23T18:25:53.075Z,28.10
2018-07-23T18:28:20.831Z,28.00
2018-07-23T18:30:48.409Z,27.90
2018-07-23T18:33:15.964Z,27.70
2018-07-23T18:35:43.499Z,27.60
2018-07-23T18:38:11.127Z,27.40
2018-07-23T18:40:38.607Z,27.30
2018-07-23T18:43:06.164Z,27.10
2018-07-23T18:45:33.701Z,27.00
2018-07-23T18:48:01.240Z,26.80
2018-07-23T18:50:28.796Z,26.60
2018-07-23T18:52:56.345Z,26.30
2018-07-23T18:55:23.887Z,26.00
2018-07-23T18:57:51.420Z,25.80
2018-07-23T19:00:18.949Z,25.60
2018-07-23T19:02:46.512Z,25.30
2018-07-23T19:05:14.036Z,25.10
2018-07-23T19:07:41.584Z,24.90
2018-07-23T19:10:09.557Z,24.70
2018-07-23T19:12:37.427Z,24.50
2018-07-23T19:15:05.464Z,24.40
2018-07-23T19:17:33.504Z,24.20
2018-07-23T19:20:01.024Z,24.10
2018-07-23T19:22:28.553Z,23.90
2018-07-23T19:24:56.077Z,23.70
2018-07-23T19:27:23.628Z,23.60
2018-07-23T19:29:51.137Z,23.50
2018-07-23T19:32:18.652Z,23.30
2018-07-23T19:34:46.168Z,23.20
2018-07-23T19:37:13.681Z,23.20
2018-07-23T19:39:41.220Z,23.10
2018-07-23T19:42:08.814Z,23.00
2018-07-23T19:44:36.304Z,22.90
2018-07-23T19:47:03.895Z,22.70
2018-07-23T19:49:31.432Z,22.70
2018-07-23T19:56:54.129Z,22.50
2018-07-23T19:59:21.720Z,22.40
2018-07-23T20:01:49.232Z,22.50
2018-07-23T20:04:16.756Z,22.50
2018-07-23T20:06:44.268Z,22.50
2018-07-23T20:09:11.848Z,22.60
2018-07-23T20:11:39.335Z,22.50
2018-07-23T20:14:06.903Z,22.50
2018-07-23T20:16:34.428Z,22.40
2018-07-23T20:19:02.112Z,22.30
2018-07-23T20:21:29.636Z,22.30
2018-07-23T20:23:57.200Z,22.20
2018-07-23T20:26:24.732Z,22.10
2018-07-23T20:28:52.252Z,22.00
2018-07-23T20:31:19.771Z,21.80
2018-07-23T20:33:47.284Z,21.70
2018-07-23T20:36:14.868Z,21.60
2018-07-23T20:38:42.388Z,21.50
2018-07-23T20:41:09.909Z,21.40
2018-07-23T20:46:05.036Z,21.20
2018-07-23T20:48:32.536Z,21.10
2018-07-23T20:51:00.048Z,21.10
2018-07-23T20:53:27.569Z,21.00
2018-07-23T20:55:55.130Z,21.00
2018-07-23T20:58:23.120Z,20.90
2018-07-23T21:00:50.687Z,20.80
2018-07-23T21:03:18.196Z,20.80
2018-07-23T21:05:45.751Z,20.70
2018-07-23T21:08:13.293Z,20.60
2018-07-23T21:10:40.824Z,20.60
2018-07-23T21:13:08.424Z,20.50
2018-07-23T21:15:50.990Z,20.40
2018-07-23T21:18:18.548Z,20.30
2018-07-23T21:20:46.132Z,20.20
2018-07-23T21:23:13.676Z,20.20
2018-07-23T21:26:11.508Z,20.10
2018-07-23T21:28:39.064Z,20.10
2018-07-23T21:31:06.900Z,20.00
2018-07-23T21:33:34.444Z,19.90
2018-07-23T21:36:08.876Z,19.80
2018-07-23T21:38:36.416Z,19.70
2018-07-23T21:41:03.992Z,19.60
2018-07-23T21:46:30.404Z,19.40
2018-07-23T21:48:57.956Z,19.40
2018-07-23T21:51:25.516Z,19.30
2018-07-23T21:57:05.728Z,19.30
2018-07-23T22:02:27.120Z,19.20
2018-07-23T22:04:54.665Z,19.20
2018-07-23T22:07:23.251Z,19.20
2018-07-23T22:09:50.792Z,19.20
2018-07-23T22:12:18.332Z,19.30
2018-07-23T22:14:45.864Z,19.30
2018-07-23T22:17:13.388Z,19.30
2018-07-23T22:19:40.908Z,19.30
2018-07-23T22:22:21.866Z,19.30
2018-07-23T22:24:49.373Z,19.20
2018-07-23T22:27:16.916Z,19.20
2018-07-23T22:29:44.440Z,19.20
2018-07-23T22:32:11.953Z,19.20
2018-07-23T22:34:49.412Z,19.20
2018-07-23T22:37:17.276Z,19.20
2018-07-23T22:39:44.780Z,19.20
2018-07-23T22:42:12.323Z,19.20
2018-07-23T22:44:39.828Z,19.20
2018-07-23T22:47:07.724Z,19.20
2018-07-23T22:52:02.880Z,19.20
2018-07-23T22:54:30.403Z,19.20
2018-07-23T22:56:57.916Z,19.20
2018-07-23T22:59:25.440Z,19.20
2018-07-23T23:01:52.989Z,19.10
2018-07-23T23:04:20.520Z,19.10
2018-07-23T23:06:48.036Z,19.10
2018-07-23T23:09:15.563Z,19.10
2018-07-23T23:11:43.068Z,19.10
2018-07-23T23:14:10.616Z,19.10
2018-07-23T23:16:38.156Z,19.10
2018-07-23T23:19:12.864Z,19.00
2018-07-23T23:21:40.384Z,19.00
2018-07-23T23:24:07.928Z,18.90
2018-07-23T23:26:35.443Z,18.90
2018-07-23T23:29:02.996Z,18.90
2018-07-23T23:31:31.284Z,18.80
2018-07-23T23:33:58.796Z,18.80
2018-07-23T23:36:26.311Z,18.70
2018-07-23T23:38:53.833Z,18.60
2018-07-23T23:41:21.364Z,18.60
2018-07-23T23:43:48.887Z,18.60
2018-07-23T23:48:43.995Z,18.40
2018-07-23T23:51:11.508Z,18.40
2018-07-23T23:53:39.036Z,18.30
2018-07-23T23:56:06.546Z,18.30
2018-07-23T23:58:34.079Z,18.20
